createdAt,value
2022-12-01T00:01:52.396Z,81.55
2022-12-01T00:04:21.421Z,90.38
2022-12-01T00:06:50.642Z,88.78
2022-12-01T00:09:36.664Z,84.25
2022-12-01T00:12:07.781Z,81.78
2022-12-01T00:14:36.669Z,90.38
2022-12-01T00:17:06.105Z,84.00
2022-12-01T00:19:37.787Z,89.32
2022-12-01T00:22:06.536Z,92.47
2022-12-01T00:24:35.686Z,78.57
2022-12-01T00:27:04.983Z,90.07
2022-12-01T00:29:36.921Z,80.15
2022-12-01T00:32:06.446Z,82.43
2022-12-01T00:34:39.772Z,88.85
2022-12-01T00:39:37.716Z,87.75
2022-12-01T00:42:11.739Z,95.07
2022-12-01T00:44:45.861Z,94.03
2022-12-01T00:47:14.891Z,100.32
2022-12-01T00:49:45.719Z,92.68
2022-12-01T00:52:15.319Z,93.45
2022-12-01T00:54:44.489Z,97.75
2022-12-01T00:57:14.005Z,100.93
2022-12-01T00:59:49.771Z,95.80
2022-12-01T01:02:18.863Z,88.80
2022-12-01T01:04:47.786Z,92.72
2022-12-01T01:07:20.494Z,97.75
2022-12-01T01:09:50.424Z,84.00
2022-12-01T01:12:19.432Z,86.00
2022-12-01T01:14:49.706Z,100.20
2022-12-01T01:17:18.805Z,98.45
2022-12-01T01:19:48.163Z,99.90
2022-12-01T01:22:20.414Z,108.70
2022-12-01T01:24:49.766Z,96.38
2022-12-01T01:27:19.047Z,110.25
2022-12-01T01:29:49.392Z,106.53
2022-12-01T01:32:18.662Z,109.95
2022-12-01T01:34:49.531Z,104.25
2022-12-01T01:37:18.920Z,93.97
2022-12-01T01:39:47.907Z,99.22
2022-12-01T01:42:20.719Z,118.43
2022-12-01T01:44:56.345Z,103.78
2022-12-01T01:47:28.576Z,103.68
2022-12-01T01:50:00.793Z,101.00
2022-12-01T01:52:30.030Z,115.85
2022-12-01T01:54:59.385Z,105.70
2022-12-01T01:57:31.894Z,101.05
2022-12-01T02:00:08.049Z,104.10
2022-12-01T02:02:44.854Z,103.38
2022-12-01T02:05:18.455Z,101.05
2022-12-01T02:10:22.753Z,105.90
2022-12-01T02:13:05.279Z,108.38
2022-12-01T02:15:43.635Z,110.05
2022-12-01T02:18:24.900Z,105.07
2022-12-01T02:21:27.135Z,89.07
2022-12-01T02:24:34.150Z,104.82
2022-12-01T02:27:08.291Z,107.00
2022-12-01T02:30:03.349Z,101.15
2022-12-01T02:32:47.325Z,107.32
2022-12-01T02:35:22.231Z,119.72
2022-12-01T02:38:04.253Z,109.80
2022-12-01T02:40:39.618Z,104.35
2022-12-01T02:43:15.501Z,107.15
2022-12-01T02:45:50.113Z,101.13
2022-12-01T02:48:27.186Z,104.35
2022-12-01T02:50:58.992Z,108.03
2022-12-01T02:53:28.044Z,101.63
2022-12-01T02:56:00.026Z,95.93
2022-12-01T02:58:29.390Z,106.13
2022-12-01T03:01:13.414Z,111.13
2022-12-01T03:04:00.795Z,96.20
2022-12-01T03:06:42.122Z,97.30
2022-12-01T03:09:19.118Z,97.07
2022-12-01T03:11:57.565Z,92.97
2022-12-01T03:14:36.432Z,98.68
2022-12-01T03:17:09.861Z,93.28
2022-12-01T03:24:49.604Z,98.25
2022-12-01T03:27:24.035Z,111.88
2022-12-01T03:29:56.746Z,102.55
2022-12-01T03:32:32.725Z,111.35
2022-12-01T03:35:08.960Z,113.18
2022-12-01T03:37:42.719Z,101.35
2022-12-01T03:40:18.212Z,100.20
2022-12-01T03:42:51.238Z,113.75
2022-12-01T03:45:25.558Z,107.05
2022-12-01T03:47:57.057Z,99.63
2022-12-01T03:50:37.040Z,103.32
2022-12-01T03:53:12.187Z,95.78
2022-12-01T03:55:45.001Z,93.93
2022-12-01T03:58:18.735Z,103.13
2022-12-01T04:03:24.751Z,96.57
2022-12-01T04:05:59.079Z,92.68
2022-12-01T04:08:28.464Z,103.93
2022-12-01T04:10:57.504Z,113.05
2022-12-01T04:13:26.681Z,106.05
2022-12-01T04:15:56.459Z,106.45
2022-12-01T04:18:28.137Z,97.10
2022-12-01T04:21:01.226Z,116.40
2022-12-01T04:23:50.560Z,101.82
2022-12-01T04:26:19.582Z,106.43
2022-12-01T04:28:49.002Z,111.38
2022-12-01T04:31:18.245Z,110.47
2022-12-01T04:33:47.272Z,103.53
2022-12-01T04:36:18.317Z,108.57
2022-12-01T04:38:49.501Z,106.22
2022-12-01T04:41:18.744Z,116.63
2022-12-01T04:43:47.741Z,104.07
2022-12-01T04:46:18.969Z,109.90
2022-12-01T04:48:48.231Z,101.07
2022-12-01T04:51:19.851Z,97.05
2022-12-01T04:53:48.991Z,106.10
2022-12-01T04:56:20.527Z,110.03
2022-12-01T04:58:49.912Z,118.10
2022-12-01T05:01:19.709Z,99.47
2022-12-01T05:03:50.903Z,102.65
2022-12-01T05:06:25.828Z,111.80
2022-12-01T05:08:57.902Z,102.63
2022-12-01T05:11:29.052Z,94.03
2022-12-01T05:13:58.416Z,98.63
2022-12-01T05:16:29.311Z,111.10
2022-12-01T05:19:14.647Z,107.28
2022-12-01T05:21:48.057Z,134.25
2022-12-01T05:24:17.380Z,111.13
2022-12-01T05:26:46.790Z,98.07
2022-12-01T05:29:16.442Z,98.88
2022-12-01T05:31:47.702Z,92.72
2022-12-01T05:34:16.814Z,88.22
2022-12-01T05:36:47.173Z,82.15
2022-12-01T05:39:16.192Z,90.47
2022-12-01T05:41:46.550Z,94.07
2022-12-01T05:44:15.339Z,96.75
2022-12-01T05:46:49.043Z,85.80
2022-12-01T05:49:18.108Z,80.97
2022-12-01T05:51:48.539Z,94.75
2022-12-01T05:54:17.665Z,85.88
2022-12-01T05:56:46.886Z,109.38
2022-12-01T05:59:15.890Z,99.20
2022-12-01T06:01:45.544Z,95.18
2022-12-01T06:04:14.697Z,99.65
2022-12-01T06:06:44.013Z,99.00
2022-12-01T06:09:16.887Z,94.50
2022-12-01T06:11:50.093Z,88.95
2022-12-01T06:14:21.778Z,104.45
2022-12-01T06:16:51.204Z,95.68
2022-12-01T06:19:20.496Z,95.93
2022-12-01T06:21:50.461Z,113.55
2022-12-01T06:24:21.075Z,101.97
2022-12-01T06:26:50.084Z,101.05
2022-12-01T06:29:20.928Z,90.85
2022-12-01T06:31:50.484Z,87.75
2022-12-01T06:34:19.707Z,118.47
2022-12-01T06:36:51.120Z,100.32
2022-12-01T06:39:21.706Z,97.10
2022-12-01T06:41:51.086Z,95.80
2022-12-01T06:44:24.137Z,100.20
2022-12-01T06:46:53.323Z,96.28
2022-12-01T06:49:22.344Z,109.90
2022-12-01T06:51:52.097Z,119.40
2022-12-01T06:54:23.305Z,118.43
2022-12-01T06:56:52.197Z,110.63
2022-12-01T06:59:21.921Z,120.05
2022-12-01T07:01:51.329Z,123.38
2022-12-01T07:04:23.079Z,116.60
2022-12-01T07:06:52.096Z,119.78
2022-12-01T07:09:22.940Z,119.20
2022-12-01T07:11:51.956Z,121.15
2022-12-01T07:14:25.341Z,128.48
2022-12-01T07:16:55.495Z,120.25
2022-12-01T07:19:24.708Z,124.15
2022-12-01T07:21:54.564Z,113.50
2022-12-01T07:24:25.860Z,109.10
2022-12-01T07:26:55.563Z,105.25
2022-12-01T07:29:25.339Z,132.48
2022-12-01T07:31:54.101Z,105.38
2022-12-01T07:34:22.788Z,123.35
2022-12-01T07:36:51.560Z,113.18
2022-12-01T07:39:20.318Z,118.13
2022-12-01T07:41:53.585Z,119.72
2022-12-01T07:44:22.451Z,107.10
2022-12-01T07:46:53.620Z,99.63
2022-12-01T07:49:24.541Z,109.88
2022-12-01T07:51:53.398Z,113.38
2022-12-01T07:54:22.334Z,113.75
2022-12-01T07:56:51.181Z,100.47
2022-12-01T07:59:21.432Z,117.53
2022-12-01T08:01:50.318Z,108.43
2022-12-01T08:04:19.451Z,124.72
2022-12-01T08:06:48.350Z,131.18
2022-12-01T08:09:17.593Z,111.97
2022-12-01T08:11:46.351Z,104.88
2022-12-01T08:14:15.509Z,108.50
2022-12-01T08:16:46.827Z,116.88
2022-12-01T08:19:16.133Z,114.57
2022-12-01T08:21:46.081Z,116.75
2022-12-01T08:24:19.649Z,104.72
2022-12-01T08:26:49.038Z,114.00
2022-12-01T08:29:20.434Z,111.53
2022-12-01T08:31:53.764Z,102.80
2022-12-01T08:34:24.284Z,99.50
2022-12-01T08:36:53.350Z,109.82
2022-12-01T08:39:23.364Z,107.30
2022-12-01T08:41:52.220Z,109.15
2022-12-01T08:44:21.483Z,127.78
2022-12-01T08:46:51.503Z,108.50
2022-12-01T08:49:22.937Z,112.53
2022-12-01T08:51:56.267Z,121.75
2022-12-01T08:54:25.017Z,115.05
2022-12-01T08:56:53.698Z,112.72
2022-12-01T08:59:22.444Z,117.07
2022-12-01T09:01:54.078Z,112.82
2022-12-01T09:04:26.308Z,110.93
2022-12-01T09:06:56.328Z,110.53
2022-12-01T09:09:26.542Z,118.22
2022-12-01T09:11:56.432Z,116.45
2022-12-01T09:14:26.017Z,110.85
2022-12-01T09:16:57.159Z,107.18
2022-12-01T09:19:31.903Z,107.80
2022-12-01T09:22:05.882Z,110.07
2022-12-01T09:24:40.034Z,113.82
2022-12-01T09:27:11.390Z,108.70
2022-12-01T09:29:40.307Z,117.72
2022-12-01T09:32:08.993Z,116.90
2022-12-01T09:34:39.029Z,115.43
2022-12-01T09:37:08.028Z,103.72
2022-12-01T09:39:37.628Z,108.03
2022-12-01T09:42:12.882Z,115.80
2022-12-01T09:44:46.165Z,113.65
2022-12-01T09:47:22.368Z,118.55
2022-12-01T09:50:02.503Z,114.05
2022-12-01T09:52:42.016Z,117.10
2022-12-01T09:55:13.747Z,116.35
2022-12-01T09:57:43.445Z,103.65
2022-12-01T10:00:18.533Z,99.32
2022-12-01T10:02:51.714Z,102.90
2022-12-01T10:05:28.223Z,108.40
2022-12-01T10:08:01.734Z,102.72
2022-12-01T10:10:35.839Z,96.63
2022-12-01T10:13:17.056Z,101.07
2022-12-01T10:15:56.067Z,100.85
2022-12-01T10:18:42.725Z,97.35
2022-12-01T10:21:24.036Z,101.55
2022-12-01T10:24:07.000Z,89.82
2022-12-01T10:26:46.980Z,95.20
2022-12-01T10:29:28.450Z,84.95
2022-12-01T10:32:03.314Z,91.72
2022-12-01T10:34:36.444Z,91.78
2022-12-01T10:37:11.505Z,81.97
2022-12-01T10:39:43.816Z,78.38
2022-12-01T10:42:18.383Z,82.22
2022-12-01T10:44:49.243Z,86.88
2022-12-01T10:47:22.015Z,77.40
2022-12-01T10:49:51.244Z,83.93
2022-12-01T10:52:40.369Z,80.10
2022-12-01T10:55:27.831Z,80.15
2022-12-01T10:57:58.938Z,77.30
2022-12-01T11:03:22.324Z,81.00
2022-12-01T11:05:53.965Z,74.13
2022-12-01T11:08:26.582Z,74.55
2022-12-01T11:10:58.572Z,73.80
2022-12-01T11:13:29.540Z,75.65
2022-12-01T11:16:00.181Z,80.97
2022-12-01T11:18:32.938Z,68.57
2022-12-01T11:21:11.353Z,74.75
2022-12-01T11:23:47.641Z,78.25
2022-12-01T11:26:27.727Z,65.07
2022-12-01T11:28:58.896Z,65.95
2022-12-01T11:31:39.272Z,62.22
2022-12-01T11:34:20.827Z,67.43
2022-12-01T11:36:56.015Z,71.95
2022-12-01T11:39:32.414Z,66.53
2022-12-01T11:42:03.882Z,64.57
2022-12-01T11:44:50.973Z,62.90
2022-12-01T11:47:24.121Z,56.50
2022-12-01T11:49:55.584Z,74.93
2022-12-01T11:52:30.677Z,57.70
2022-12-01T11:55:09.765Z,58.42
2022-12-01T11:57:42.096Z,54.92
2022-12-01T12:00:15.405Z,54.45
2022-12-01T12:02:55.322Z,54.22
2022-12-01T12:06:11.672Z,57.80
2022-12-01T12:09:04.651Z,50.15
2022-12-01T12:11:46.187Z,55.03
2022-12-01T12:14:29.727Z,54.55
2022-12-01T12:17:24.188Z,58.83
2022-12-01T12:20:31.886Z,55.03
2022-12-01T12:23:26.355Z,53.45
2022-12-01T12:26:06.058Z,58.05
2022-12-01T12:28:52.358Z,58.42
2022-12-01T12:31:35.631Z,53.15
2022-12-01T12:36:48.541Z,53.63
2022-12-01T12:39:30.697Z,55.17
2022-12-01T12:42:00.609Z,54.63
2022-12-01T12:44:47.560Z,45.40
2022-12-01T12:47:36.869Z,49.88
2022-12-01T12:50:19.145Z,50.42
2022-12-01T12:52:51.434Z,56.28
2022-12-01T12:55:25.828Z,46.83
2022-12-01T12:57:58.411Z,50.85
2022-12-01T13:00:30.412Z,38.75
2022-12-01T13:03:04.882Z,42.85
2022-12-01T13:05:40.775Z,43.78
2022-12-01T13:08:15.819Z,46.83
2022-12-01T13:10:53.530Z,50.60
2022-12-01T13:13:32.204Z,50.38
2022-12-01T13:16:11.706Z,46.80
2022-12-01T13:18:46.003Z,44.35
2022-12-01T13:21:18.638Z,40.08
2022-12-01T13:23:48.939Z,42.80
2022-12-01T13:26:21.410Z,43.50
2022-12-01T13:28:53.470Z,38.17
2022-12-01T13:31:26.219Z,38.75
2022-12-01T13:33:59.222Z,39.45
2022-12-01T13:39:22.880Z,43.42
2022-12-01T13:42:01.434Z,39.72
2022-12-01T13:44:38.647Z,41.55
2022-12-01T13:47:38.064Z,47.65
2022-12-01T13:50:55.852Z,40.28
2022-12-01T13:53:37.077Z,38.80
2022-12-01T13:56:27.982Z,42.53
2022-12-01T13:58:56.903Z,39.90
2022-12-01T14:01:46.979Z,39.97
2022-12-01T14:04:31.470Z,39.72
2022-12-01T14:07:38.552Z,37.63
2022-12-01T14:10:24.194Z,40.55
2022-12-01T14:12:59.521Z,38.00
2022-12-01T14:15:35.272Z,41.85
2022-12-01T14:18:08.004Z,36.00
2022-12-01T14:20:49.903Z,40.65
2022-12-01T14:23:25.390Z,39.38
2022-12-01T14:26:12.948Z,44.65
2022-12-01T14:29:28.253Z,34.45
2022-12-01T14:32:26.967Z,35.67
2022-12-01T14:35:12.791Z,39.90
2022-12-01T14:37:50.038Z,35.15
2022-12-01T14:40:24.662Z,39.03
2022-12-01T14:43:16.212Z,40.47
2022-12-01T14:45:56.032Z,36.95
2022-12-01T14:48:29.159Z,40.72
2022-12-01T14:51:15.253Z,35.97
2022-12-01T14:53:49.561Z,34.45
2022-12-01T14:56:23.140Z,34.95
2022-12-01T14:58:54.098Z,37.05
2022-12-01T15:01:24.501Z,31.90
2022-12-01T15:03:57.960Z,28.48
2022-12-01T15:06:29.634Z,32.85
2022-12-01T15:09:32.812Z,29.08
2022-12-01T15:12:02.025Z,29.42
2022-12-01T15:14:35.264Z,32.40
2022-12-01T15:17:09.160Z,27.67
2022-12-01T15:19:44.014Z,27.20
2022-12-01T15:22:19.152Z,28.20
2022-12-01T15:24:49.829Z,27.58
2022-12-01T15:27:27.854Z,28.75
2022-12-01T15:29:58.435Z,25.25
2022-12-01T15:32:28.501Z,30.55
2022-12-01T15:35:01.978Z,25.67
2022-12-01T15:37:36.442Z,24.67
2022-12-01T15:40:59.747Z,32.65
2022-12-01T15:43:03.198Z,25.70
2022-12-01T15:45:43.468Z,27.77
2022-12-01T15:48:18.047Z,25.60
2022-12-01T15:51:00.390Z,22.13
2022-12-01T15:53:33.588Z,25.45
2022-12-01T15:56:12.536Z,29.25
2022-12-01T15:58:47.668Z,28.02
2022-12-01T16:01:19.428Z,28.60
2022-12-01T16:03:55.765Z,26.40
2022-12-01T16:06:28.668Z,24.20
2022-12-01T16:09:02.786Z,21.48
2022-12-01T16:11:33.245Z,24.70
2022-12-01T16:14:06.915Z,26.77
2022-12-01T16:16:42.857Z,27.17
2022-12-01T16:19:29.746Z,28.13
2022-12-01T16:22:04.860Z,24.92
2022-12-01T16:24:36.293Z,26.25
2022-12-01T16:27:17.932Z,24.88
2022-12-01T16:29:51.512Z,27.30
2022-12-01T16:32:24.544Z,28.55
2022-12-01T16:34:55.422Z,28.00
2022-12-01T16:37:28.550Z,24.90
2022-12-01T16:40:00.778Z,32.60
2022-12-01T16:42:31.585Z,27.70
2022-12-01T16:45:00.739Z,24.55
2022-12-01T16:47:33.079Z,31.35
2022-12-01T16:50:02.794Z,27.42
2022-12-01T16:52:48.288Z,28.42
2022-12-01T16:55:38.855Z,27.75
2022-12-01T16:58:10.001Z,33.10
2022-12-01T17:00:39.973Z,27.48
2022-12-01T17:03:12.094Z,29.38
2022-12-01T17:05:40.881Z,29.20
2022-12-01T17:10:45.453Z,29.63
2022-12-01T17:13:19.257Z,27.55
2022-12-01T17:15:50.245Z,32.92
2022-12-01T17:18:24.171Z,29.35
2022-12-01T17:21:01.816Z,28.75
2022-12-01T17:23:37.939Z,32.65
2022-12-01T17:26:13.787Z,36.72
2022-12-01T17:28:45.809Z,31.95
2022-12-01T17:31:16.291Z,36.10
2022-12-01T17:33:45.296Z,32.60
2022-12-01T17:36:16.279Z,27.63
2022-12-01T17:38:49.772Z,37.15
2022-12-01T17:41:23.022Z,28.58
2022-12-01T17:43:54.279Z,30.02
2022-12-01T17:46:26.164Z,40.20
2022-12-01T17:48:59.395Z,36.67
2022-12-01T17:51:29.021Z,31.20
2022-12-01T17:53:58.990Z,36.92
2022-12-01T17:56:28.677Z,37.47
2022-12-01T17:58:59.661Z,42.25
2022-12-01T18:01:30.764Z,43.22
2022-12-01T18:03:59.840Z,39.88
2022-12-01T18:06:28.882Z,50.78
2022-12-01T18:09:01.237Z,46.45
2022-12-01T18:11:30.203Z,46.13
2022-12-01T18:14:03.170Z,43.58
2022-12-01T18:16:33.476Z,50.35
2022-12-01T18:19:03.317Z,45.05
2022-12-01T18:21:34.926Z,45.85
2022-12-01T18:24:05.587Z,46.67
2022-12-01T18:26:40.579Z,49.05
2022-12-01T18:29:14.019Z,51.55
2022-12-01T18:34:12.859Z,48.10
2022-12-01T18:36:42.266Z,42.78
2022-12-01T18:39:12.485Z,49.00
2022-12-01T18:41:41.648Z,41.10
2022-12-01T18:44:16.360Z,48.40
2022-12-01T18:46:47.165Z,43.50
2022-12-01T18:49:21.328Z,47.17
2022-12-01T18:51:52.210Z,42.72
2022-12-01T18:54:21.162Z,50.47
2022-12-01T18:56:53.032Z,46.40
2022-12-01T18:59:23.241Z,50.80
2022-12-01T19:01:54.701Z,45.47
2022-12-01T19:04:26.403Z,46.40
2022-12-01T19:06:55.447Z,58.03
2022-12-01T19:09:24.142Z,54.65
2022-12-01T19:11:59.850Z,47.78
2022-12-01T19:14:33.219Z,48.03
2022-12-01T19:17:02.888Z,41.85
2022-12-01T19:19:37.416Z,42.13
2022-12-01T19:22:08.819Z,43.13
2022-12-01T19:24:37.685Z,40.00
2022-12-01T19:27:08.631Z,42.40
2022-12-01T19:29:38.898Z,38.70
2022-12-01T19:32:10.478Z,43.33
2022-12-01T19:34:39.164Z,42.25
2022-12-01T19:37:13.838Z,46.42
2022-12-01T19:39:42.789Z,40.10
2022-12-01T19:42:14.193Z,43.60
2022-12-01T19:44:47.668Z,43.33
2022-12-01T19:47:22.395Z,42.25
2022-12-01T19:49:51.452Z,42.92
2022-12-01T19:52:20.205Z,41.90
2022-12-01T19:54:49.411Z,42.40
2022-12-01T19:57:18.290Z,38.60
2022-12-01T19:59:48.428Z,37.42
2022-12-01T20:02:17.477Z,42.13
2022-12-01T20:04:46.213Z,43.28
2022-12-01T20:07:14.983Z,39.55
2022-12-01T20:09:49.583Z,36.70
2022-12-01T20:12:18.876Z,43.95
2022-12-01T20:14:49.516Z,42.22
2022-12-01T20:17:18.851Z,44.63
2022-12-01T20:19:53.797Z,45.55
2022-12-01T20:22:22.672Z,45.10
2022-12-01T20:24:51.861Z,41.45
2022-12-01T20:27:20.647Z,40.78
2022-12-01T20:29:51.215Z,55.05
2022-12-01T20:32:23.474Z,47.72
2022-12-01T20:34:52.850Z,47.72
2022-12-01T20:37:21.784Z,50.17
2022-12-01T20:39:50.671Z,49.03
2022-12-01T20:42:22.313Z,47.20
2022-12-01T20:44:52.773Z,47.15
2022-12-01T20:47:22.088Z,43.40
2022-12-01T20:49:54.236Z,43.40
2022-12-01T20:52:27.062Z,45.60
2022-12-01T20:54:56.319Z,45.55
2022-12-01T20:57:25.095Z,58.53
2022-12-01T20:59:55.205Z,46.42
2022-12-01T21:02:39.672Z,52.17
2022-12-01T21:05:09.278Z,66.28
2022-12-01T21:07:41.639Z,65.30
2022-12-01T21:10:14.536Z,48.97
2022-12-01T21:13:10.825Z,53.35
2022-12-01T21:15:50.932Z,43.90
2022-12-01T21:18:23.322Z,46.22
2022-12-01T21:21:03.614Z,42.80
2022-12-01T21:23:33.186Z,44.97
2022-12-01T21:26:02.656Z,44.80
2022-12-01T21:28:31.546Z,48.08
2022-12-01T21:31:11.578Z,56.22
2022-12-01T21:33:43.179Z,51.50
2022-12-01T21:36:16.997Z,43.55
2022-12-01T21:38:47.260Z,48.10
2022-12-01T21:41:26.019Z,47.30
2022-12-01T21:43:57.079Z,51.45
2022-12-01T21:46:28.514Z,53.70
2022-12-01T21:48:57.974Z,55.00
2022-12-01T21:51:27.635Z,61.60
2022-12-01T21:53:57.855Z,62.67
2022-12-01T21:56:28.640Z,60.88
2022-12-01T21:59:05.663Z,55.90
2022-12-01T22:01:36.205Z,57.75
2022-12-01T22:04:13.232Z,60.67
2022-12-01T22:06:47.726Z,55.38
2022-12-01T22:09:26.606Z,59.35
2022-12-01T22:11:57.463Z,61.28
2022-12-01T22:14:30.320Z,56.17
2022-12-01T22:17:13.708Z,58.92
2022-12-01T22:19:46.872Z,55.92
2022-12-01T22:24:53.869Z,61.47
2022-12-01T22:27:33.466Z,60.90
2022-12-01T22:30:17.826Z,60.83
2022-12-01T22:32:56.047Z,58.67
2022-12-01T22:35:36.495Z,60.80
2022-12-01T22:38:36.559Z,55.25
2022-12-01T22:41:12.745Z,61.92
2022-12-01T22:43:47.304Z,57.63
2022-12-01T22:46:30.979Z,54.97
2022-12-01T22:49:04.135Z,63.88
2022-12-01T22:51:43.732Z,61.88
2022-12-01T22:54:30.554Z,57.65
2022-12-01T22:57:09.274Z,62.92
2022-12-01T22:59:43.413Z,63.97
2022-12-01T23:02:21.968Z,60.47
2022-12-01T23:04:56.741Z,63.97
2022-12-01T23:07:35.637Z,61.58
2022-12-01T23:10:08.974Z,63.28
2022-12-01T23:12:38.064Z,61.25
2022-12-01T23:15:32.169Z,55.75
2022-12-01T23:18:14.233Z,61.92
2022-12-01T23:20:49.105Z,67.80
2022-12-01T23:23:20.409Z,65.82
2022-12-01T23:25:52.176Z,62.63
2022-12-01T23:28:24.060Z,63.00
2022-12-01T23:30:56.181Z,67.78
2022-12-01T23:33:27.250Z,59.80
2022-12-01T23:36:01.391Z,61.17
2022-12-01T23:38:36.074Z,65.80
2022-12-01T23:41:08.169Z,60.65
2022-12-01T23:43:40.910Z,61.47
2022-12-01T23:46:12.882Z,65.00
2022-12-01T23:48:44.997Z,59.30
2022-12-01T23:51:20.228Z,66.75
2022-12-01T23:53:50.891Z,69.13
2022-12-01T23:56:23.874Z,65.22
2022-12-01T23:58:53.619Z,67.80
